Time;durP1;ratioP1;P1;durP2;ratioP2;P2;SDS_P1;SDS_P2;PMS_P1;PMS_P2;Temp;Humidity;BMP_temperature;BMP_pressure;BME280_temperature;BME280_humidity;BME280_pressure;Samples;Min_cycle;Max_cycle;Signal;HPM_P1;HPM_P2
2022/04/29 00:00:18;;;;;;;;;;;;;;;;;;5071839;28;19920;-50
2022/04/29 00:02:45;;;;;;;;;;;;;;;;;;5071995;28;20380;-43
2022/04/29 00:05:11;;;;;;;;;;;;;;;;;;5071182;28;19970;-46
2022/04/29 00:07:39;;;;;;;;;;;;;;;;;;5071982;28;20340;-47
2022/04/29 00:10:05;;;;;;;;;;;;;;;;;;5064340;28;19923;-45
2022/04/29 00:12:32;;;;;;;;;;;;;;;;;;5051362;28;20360;-50
2022/04/29 00:14:59;;;;;;;;;;;;;;;;;;5053511;28;19921;-44
2022/04/29 00:17:26;;;;;;;;;;;;;;;;;;5053536;28;20086;-50
2022/04/29 00:19:53;;;;;;;;;;;;;;;;;;5053024;28;19909;-41
2022/04/29 00:22:21;;;;;;;;;;;;;;;;;;5051967;28;20032;-47
2022/04/29 00:24:47;;;;;;;;;;;;;;;;;;5052258;28;19952;-45
2022/04/29 00:27:14;;;;;;;;;;;;;;;;;;5052107;28;19917;-50
2022/04/29 00:29:40;;;;;;;;;;;;;;;;;;5052494;28;19909;-48
2022/04/29 00:32:07;;;;;;;;;;;;;;;;;;5050524;28;19905;-50
2022/04/29 00:34:33;;;;;;;;;;;;;;;;;;5052003;28;19957;-45
2022/04/29 00:37:00;;;;;;;;;;;;;;;;;;5051827;28;19987;-50
2022/04/29 00:39:26;;;;;;;;;;;;;;;;;;5051855;28;20370;-51
2022/04/29 00:41:53;;;;;;;;;;;;;;;;;;5052414;28;19909;-47
2022/04/29 00:44:19;;;;;;;;;;;;;;;;;;5052233;28;19951;-51
2022/04/29 00:46:46;;;;;;;;;;;;;;;;;;5056146;28;19909;-51
2022/04/29 00:49:12;;;;;;;;;;;;;;;;;;5072113;28;20298;-44
2022/04/29 00:51:39;;;;;;;;;;;;;;;;;;5071752;28;19919;-45
2022/04/29 00:54:05;;;;;;;;;;;;;;;;;;5071994;28;19912;-41
2022/04/29 00:56:32;;;;;;;;;;;;;;;;;;5074120;28;19909;-50
2022/04/29 00:58:58;;;;;;;;;;;;;;;;;;5075611;28;19908;-46
2022/04/29 01:01:25;;;;;;;;;;;;;;;;;;5075874;28;19970;-50
2022/04/29 01:03:51;;;;;;;;;;;;;;;;;;5075705;28;19977;-43
2022/04/29 01:06:18;;;;;;;;;;;;;;;;;;5075210;28;19921;-47
2022/04/29 01:08:44;;;;;;;;;;;;;;;;;;5075639;28;19952;-42
2022/04/29 01:11:11;;;;;;;;;;;;;;;;;;5075988;28;19962;-51
2022/04/29 01:13:37;;;;;;;;;;;;;;;;;;5075481;28;19988;-52
2022/04/29 01:16:06;;;;;;;;;;;;;;;;;;5075137;28;19908;-47
2022/04/29 01:18:32;;;;;;;;;;;;;;;;;;5075892;28;19950;-52
2022/04/29 01:20:59;;;;;;;;;;;;;;;;;;5075525;28;19916;-47
2022/04/29 01:23:28;;;;;;;;;;;;;;;;;;5075309;28;19948;-52
2022/04/29 01:25:55;;;;;;;;;;;;;;;;;;5075530;28;19909;-46
2022/04/29 01:28:21;;;;;;;;;;;;;;;;;;5075138;28;20317;-49
2022/04/29 01:30:49;;;;;;;;;;;;;;;;;;5075461;28;20205;-56
2022/04/29 01:33:15;;;;;;;;;;;;;;;;;;5075474;28;19920;-45
2022/04/29 01:35:42;;;;;;;;;;;;;;;;;;5074944;28;19908;-52
2022/04/29 01:38:08;;;;;;;;;;;;;;;;;;5075011;28;20370;-52
2022/04/29 01:40:34;;;;;;;;;;;;;;;;;;5075066;28;20394;-55
2022/04/29 01:43:02;;;;;;;;;;;;;;;;;;5074806;28;19940;-44
2022/04/29 01:45:29;;;;;;;;;;;;;;;;;;5075094;28;19908;-54
2022/04/29 01:47:55;;;;;;;;;;;;;;;;;;5075147;28;20310;-55
2022/04/29 01:50:21;;;;;;;;;;;;;;;;;;5074850;28;19978;-46
2022/04/29 01:52:48;;;;;;;;;;;;;;;;;;5074669;28;20284;-54
2022/04/29 01:55:14;;;;;;;;;;;;;;;;;;5074733;28;19908;-51
2022/04/29 01:57:41;;;;;;;;;;;;;;;;;;5074237;28;19913;-51
2022/04/29 02:00:07;;;;;;;;;;;;;;;;;;5073933;28;19908;-44
2022/04/29 02:02:34;;;;;;;;;;;;;;;;;;5074296;28;19912;-55
2022/04/29 02:05:00;;;;;;;;;;;;;;;;;;5074590;28;19909;-52
2022/04/29 02:07:27;;;;;;;;;;;;;;;;;;5073256;28;20367;-54
2022/04/29 02:09:56;;;;;;;;;;;;;;;;;;5074518;28;20438;-57
2022/04/29 02:12:22;;;;;;;;;;;;;;;;;;5074422;28;19909;-46
2022/04/29 02:14:49;;;;;;;;;;;;;;;;;;5074195;28;20414;-57
2022/04/29 02:17:15;;;;;;;;;;;;;;;;;;5073453;28;20274;-54
2022/04/29 02:19:42;;;;;;;;;;;;;;;;;;5073938;28;19909;-53
2022/04/29 02:22:08;;;;;;;;;;;;;;;;;;5072737;28;19949;-48
2022/04/29 02:24:35;;;;;;;;;;;;;;;;;;5063953;28;20232;-54
2022/04/29 02:27:02;;;;;;;;;;;;;;;;;;5054373;28;19908;-52
2022/04/29 02:29:28;;;;;;;;;;;;;;;;;;5054141;28;19916;-49
2022/04/29 02:31:55;;;;;;;;;;;;;;;;;;5053811;28;20342;-59
2022/04/29 02:34:21;;;;;;;;;;;;;;;;;;5054075;28;20344;-47
2022/04/29 02:36:48;;;;;;;;;;;;;;;;;;5053611;28;19965;-50
2022/04/29 02:39:14;;;;;;;;;;;;;;;;;;5053311;28;19956;-49
2022/04/29 02:41:41;;;;;;;;;;;;;;;;;;5053417;28;20019;-53
2022/04/29 02:44:07;;;;;;;;;;;;;;;;;;5053698;28;19943;-55
2022/04/29 02:46:34;;;;;;;;;;;;;;;;;;5053660;28;19909;-54
2022/04/29 02:49:00;;;;;;;;;;;;;;;;;;5054069;28;20386;-52
2022/04/29 02:51:27;;;;;;;;;;;;;;;;;;5073549;28;19932;-49
2022/04/29 02:53:53;;;;;;;;;;;;;;;;;;5073530;28;20080;-51
2022/04/29 02:56:20;;;;;;;;;;;;;;;;;;5054482;28;20429;-52
2022/04/29 02:58:46;;;;;;;;;;;;;;;;;;5053331;28;20347;-55
2022/04/29 03:01:13;;;;;;;;;;;;;;;;;;5052490;28;20375;-47
2022/04/29 03:03:39;;;;;;;;;;;;;;;;;;5054050;28;19952;-47
2022/04/29 03:06:06;;;;;;;;;;;;;;;;;;5053014;28;19966;-51
2022/04/29 03:08:32;;;;;;;;;;;;;;;;;;5052406;28;19924;-56
2022/04/29 03:11:00;;;;;;;;;;;;;;;;;;5052354;28;20014;-48
2022/04/29 03:13:27;;;;;;;;;;;;;;;;;;5052869;28;19915;-48
2022/04/29 03:15:54;;;;;;;;;;;;;;;;;;5052808;28;20275;-56
2022/04/29 03:18:23;;;;;;;;;;;;;;;;;;5052794;28;19913;-51
2022/04/29 03:20:49;;;;;;;;;;;;;;;;;;5052786;28;19932;-54
2022/04/29 03:23:16;;;;;;;;;;;;;;;;;;5053141;28;19915;-50
2022/04/29 03:25:43;;;;;;;;;;;;;;;;;;5052796;28;20344;-50
2022/04/29 03:28:09;;;;;;;;;;;;;;;;;;5052826;28;19924;-53
2022/04/29 03:30:35;;;;;;;;;;;;;;;;;;5052733;28;19935;-50
2022/04/29 03:33:02;;;;;;;;;;;;;;;;;;5052503;28;19909;-51
2022/04/29 03:35:28;;;;;;;;;;;;;;;;;;5070998;28;20006;-53
2022/04/29 03:37:55;;;;;;;;;;;;;;;;;;5072720;28;19918;-53
2022/04/29 03:40:21;;;;;;;;;;;;;;;;;;5072134;28;19908;-55
2022/04/29 03:42:48;;;;;;;;;;;;;;;;;;5072462;28;19986;-56
2022/04/29 03:45:14;;;;;;;;;;;;;;;;;;5072432;28;19913;-52
2022/04/29 03:47:41;;;;;;;;;;;;;;;;;;5071757;28;20308;-58
2022/04/29 03:50:07;;;;;;;;;;;;;;;;;;5071855;28;20220;-47
2022/04/29 03:52:34;;;;;;;;;;;;;;;;;;5071696;28;19992;-49
2022/04/29 03:55:00;;;;;;;;;;;;;;;;;;5072371;28;19915;-59
2022/04/29 03:57:27;;;;;;;;;;;;;;;;;;5071537;28;20339;-53
2022/04/29 03:59:53;;;;;;;;;;;;;;;;;;5072490;28;20260;-53
2022/04/29 04:02:20;;;;;;;;;;;;;;;;;;5072510;28;20240;-57
2022/04/29 04:04:46;;;;;;;;;;;;;;;;;;5071368;28;19909;-50
2022/04/29 04:07:13;;;;;;;;;;;;;;;;;;5072104;28;19946;-53
2022/04/29 04:09:39;;;;;;;;;;;;;;;;;;5072267;28;20231;-54
2022/04/29 04:12:06;;;;;;;;;;;;;;;;;;5072179;28;19908;-54
2022/04/29 04:14:32;;;;;;;;;;;;;;;;;;5072490;28;19927;-54
2022/04/29 04:16:59;;;;;;;;;;;;;;;;;;5071988;28;19904;-57
2022/04/29 04:19:25;;;;;;;;;;;;;;;;;;5070907;28;19919;-51
2022/04/29 04:21:52;;;;;;;;;;;;;;;;;;5070922;28;19911;-51
2022/04/29 04:24:18;;;;;;;;;;;;;;;;;;5071820;28;20382;-56
2022/04/29 04:26:45;;;;;;;;;;;;;;;;;;5072257;28;20408;-52
2022/04/29 04:29:11;;;;;;;;;;;;;;;;;;5072187;28;19916;-57
2022/04/29 04:31:38;;;;;;;;;;;;;;;;;;5070980;28;20044;-52
2022/04/29 04:34:49;;;;;;;;;;;;;;;;;;5071768;28;19913;-56
2022/04/29 04:36:54;;;;;;;;;;;;;;;;;;5071651;28;20266;-50
2022/04/29 04:39:20;;;;;;;;;;;;;;;;;;5071544;28;19916;-46
2022/04/29 04:41:48;;;;;;;;;;;;;;;;;;5070993;28;19992;-51
2022/04/29 04:44:14;;;;;;;;;;;;;;;;;;5071369;28;19966;-56
2022/04/29 04:46:41;;;;;;;;;;;;;;;;;;5071038;28;19962;-55
2022/04/29 04:49:08;;;;;;;;;;;;;;;;;;5071667;28;19927;-56
2022/04/29 04:51:34;;;;;;;;;;;;;;;;;;5071405;28;19986;-51
2022/04/29 04:54:01;;;;;;;;;;;;;;;;;;5071524;28;19908;-53
2022/04/29 04:56:27;;;;;;;;;;;;;;;;;;5070757;28;19912;-54
2022/04/29 04:58:54;;;;;;;;;;;;;;;;;;5071874;28;19909;-54
2022/04/29 05:01:20;;;;;;;;;;;;;;;;;;5071551;28;19915;-56
2022/04/29 05:03:47;;;;;;;;;;;;;;;;;;5071986;28;19909;-52
2022/04/29 05:06:13;;;;;;;;;;;;;;;;;;5069932;28;19920;-53
2022/04/29 05:08:39;;;;;;;;;;;;;;;;;;5051686;28;19920;-55
2022/04/29 05:11:06;;;;;;;;;;;;;;;;;;5051877;28;19916;-51
2022/04/29 05:13:32;;;;;;;;;;;;;;;;;;5070782;28;19908;-43
2022/04/29 05:15:59;;;;;;;;;;;;;;;;;;5071991;28;19915;-48
2022/04/29 05:18:25;;;;;;;;;;;;;;;;;;5071883;28;19919;-49
2022/04/29 05:20:52;;;;;;;;;;;;;;;;;;5071937;28;20359;-50
2022/04/29 05:23:18;;;;;;;;;;;;;;;;;;5071998;28;20328;-58
2022/04/29 05:25:46;;;;;;;;;;;;;;;;;;5071670;28;19916;-55
2022/04/29 05:28:12;;;;;;;;;;;;;;;;;;5070987;28;20381;-50
2022/04/29 05:30:39;;;;;;;;;;;;;;;;;;5071657;28;19919;-55
2022/04/29 05:33:05;;;;;;;;;;;;;;;;;;5071695;28;19947;-55
2022/04/29 05:35:32;;;;;;;;;;;;;;;;;;5071106;28;19919;-53
2022/04/29 05:37:58;;;;;;;;;;;;;;;;;;5071328;28;19955;-48
2022/04/29 05:43:09;;;;;;;;;;;;;;;;;;5073019;28;20030;-54
2022/04/29 05:45:36;;;;;;;;;;;;;;;;;;5075240;28;20018;-47
2022/04/29 05:48:02;;;;;;;;;;;;;;;;;;5073935;28;19917;-53
2022/04/29 05:50:29;;;;;;;;;;;;;;;;;;5073646;28;19999;-49
2022/04/29 05:52:55;;;;;;;;;;;;;;;;;;5074381;28;19909;-44
2022/04/29 05:55:22;;;;;;;;;;;;;;;;;;5074607;28;19909;-56
2022/04/29 05:57:49;;;;;;;;;;;;;;;;;;5074277;28;19908;-51
2022/04/29 06:00:15;;;;;;;;;;;;;;;;;;5073597;28;19920;-52
2022/04/29 06:02:41;;;;;;;;;;;;;;;;;;5074691;28;19920;-45
2022/04/29 06:05:08;;;;;;;;;;;;;;;;;;5073998;28;19952;-49
2022/04/29 06:07:34;;;;;;;;;;;;;;;;;;5073850;28;19917;-55
2022/04/29 06:10:01;;;;;;;;;;;;;;;;;;5074245;28;20053;-46
2022/04/29 06:12:27;;;;;;;;;;;;;;;;;;5074235;28;19916;-48
2022/04/29 06:14:54;;;;;;;;;;;;;;;;;;5073319;28;19950;-55
2022/04/29 06:17:22;;;;;;;;;;;;;;;;;;5074249;28;19909;-52
2022/04/29 06:19:48;;;;;;;;;;;;;;;;;;5074358;28;19908;-49
2022/04/29 06:22:15;;;;;;;;;;;;;;;;;;5074097;28;19909;-56
2022/04/29 06:24:43;;;;;;;;;;;;;;;;;;5074369;28;19916;-54
2022/04/29 06:27:10;;;;;;;;;;;;;;;;;;5074480;28;20252;-50
2022/04/29 06:29:36;;;;;;;;;;;;;;;;;;5071737;28;19940;-47
2022/04/29 06:32:03;;;;;;;;;;;;;;;;;;5053792;28;19908;-47
2022/04/29 06:34:29;;;;;;;;;;;;;;;;;;5054146;28;20035;-56
2022/04/29 06:36:56;;;;;;;;;;;;;;;;;;5053706;28;19979;-48
2022/04/29 06:39:22;;;;;;;;;;;;;;;;;;5053883;28;19916;-51
2022/04/29 06:41:49;;;;;;;;;;;;;;;;;;5053430;28;19928;-53
2022/04/29 06:44:15;;;;;;;;;;;;;;;;;;5053766;28;20059;-56
2022/04/29 06:46:41;;;;;;;;;;;;;;;;;;5056061;28;20332;-54
2022/04/29 06:49:09;;;;;;;;;;;;;;;;;;5072240;28;19953;-52
2022/04/29 06:51:35;;;;;;;;;;;;;;;;;;5073386;28;19928;-49
2022/04/29 06:54:01;;;;;;;;;;;;;;;;;;5072391;28;19908;-53
2022/04/29 06:56:28;;;;;;;;;;;;;;;;;;5073283;28;19920;-52
2022/04/29 06:58:54;;;;;;;;;;;;;;;;;;5073592;28;19915;-52
2022/04/29 07:01:21;;;;;;;;;;;;;;;;;;5073050;28;19908;-51
2022/04/29 07:03:47;;;;;;;;;;;;;;;;;;5072761;28;20018;-54
2022/04/29 07:06:14;;;;;;;;;;;;;;;;;;5072766;28;20370;-53
2022/04/29 07:08:41;;;;;;;;;;;;;;;;;;5072618;28;20201;-55
2022/04/29 07:11:07;;;;;;;;;;;;;;;;;;5072323;28;20092;-52
2022/04/29 07:13:34;;;;;;;;;;;;;;;;;;5073148;28;19916;-50
2022/04/29 07:16:00;;;;;;;;;;;;;;;;;;5072875;28;20042;-52
2022/04/29 07:18:27;;;;;;;;;;;;;;;;;;5072825;28;20248;-52
2022/04/29 07:20:53;;;;;;;;;;;;;;;;;;5072605;28;19915;-54
2022/04/29 07:23:20;;;;;;;;;;;;;;;;;;5072821;28;19908;-53
2022/04/29 07:25:46;;;;;;;;;;;;;;;;;;5072937;28;19909;-51
2022/04/29 07:28:13;;;;;;;;;;;;;;;;;;5072949;28;19986;-51
2022/04/29 07:30:39;;;;;;;;;;;;;;;;;;5072514;28;19913;-50
2022/04/29 07:33:05;;;;;;;;;;;;;;;;;;5072736;28;19927;-50
2022/04/29 07:43:46;;;;;;;;;;;;;;;;;;5052431;28;20056;-49
2022/04/29 07:46:12;;;;;;;;;;;;;;;;;;5051823;28;19931;-52
2022/04/29 07:48:39;;;;;;;;;;;;;;;;;;5052078;28;20415;-53
2022/04/29 07:51:06;;;;;;;;;;;;;;;;;;5051642;28;19948;-55
2022/04/29 07:53:34;;;;;;;;;;;;;;;;;;5065859;28;20302;-55
2022/04/29 07:56:01;;;;;;;;;;;;;;;;;;5072286;28;19940;-51
2022/04/29 07:58:27;;;;;;;;;;;;;;;;;;5071948;28;19961;-54
2022/04/29 08:00:55;;;;;;;;;;;;;;;;;;5072216;28;19909;-53
2022/04/29 08:03:21;;;;;;;;;;;;;;;;;;5072356;28;19943;-51
2022/04/29 08:05:49;;;;;;;;;;;;;;;;;;5071139;28;19920;-49
2022/04/29 08:08:16;;;;;;;;;;;;;;;;;;5071983;28;20006;-51
2022/04/29 08:10:42;;;;;;;;;;;;;;;;;;5071788;28;19913;-52
2022/04/29 08:13:09;;;;;;;;;;;;;;;;;;5072026;28;19917;-58
2022/04/29 08:15:35;;;;;;;;;;;;;;;;;;5072072;28;20270;-55
2022/04/29 08:18:03;;;;;;;;;;;;;;;;;;5072022;28;19909;-55
2022/04/29 08:20:29;;;;;;;;;;;;;;;;;;5071984;28;19962;-54
2022/04/29 08:22:56;;;;;;;;;;;;;;;;;;5072402;28;20351;-48
2022/04/29 08:25:22;;;;;;;;;;;;;;;;;;5071566;28;19958;-49
2022/04/29 08:27:50;;;;;;;;;;;;;;;;;;5072223;28;19916;-53
2022/04/29 08:30:17;;;;;;;;;;;;;;;;;;5071715;28;19908;-52
2022/04/29 08:32:43;;;;;;;;;;;;;;;;;;5071995;28;20051;-50
2022/04/29 08:35:10;;;;;;;;;;;;;;;;;;5072246;28;20264;-45
2022/04/29 08:37:37;;;;;;;;;;;;;;;;;;5071975;28;19909;-52
2022/04/29 08:40:03;;;;;;;;;;;;;;;;;;5071199;28;19909;-55
2022/04/29 08:42:30;;;;;;;;;;;;;;;;;;5072005;28;19923;-56
2022/04/29 08:44:56;;;;;;;;;;;;;;;;;;5071708;28;19954;-53
2022/04/29 08:47:23;;;;;;;;;;;;;;;;;;5070785;28;20430;-50
2022/04/29 08:49:49;;;;;;;;;;;;;;;;;;5072125;28;19912;-45
2022/04/29 08:52:16;;;;;;;;;;;;;;;;;;5071686;28;19938;-54
2022/04/29 09:00:11;;;;;;;;;;;;;;;;;;5072144;28;19915;-53
2022/04/29 09:02:39;;;;;;;;;;;;;;;;;;5071614;28;19916;-46
2022/04/29 09:05:05;;;;;;;;;;;;;;;;;;5071541;28;19921;-56
2022/04/29 09:07:32;;;;;;;;;;;;;;;;;;5071795;28;19967;-54
2022/04/29 09:09:58;;;;;;;;;;;;;;;;;;5071527;28;19909;-52
2022/04/29 09:12:25;;;;;;;;;;;;;;;;;;5070993;28;19952;-52
2022/04/29 09:14:51;;;;;;;;;;;;;;;;;;5070544;28;19916;-52
2022/04/29 09:17:18;;;;;;;;;;;;;;;;;;5073457;28;20367;-52
2022/04/29 09:19:44;;;;;;;;;;;;;;;;;;5075005;28;19916;-51
2022/04/29 09:22:12;;;;;;;;;;;;;;;;;;5075434;28;20002;-54
2022/04/29 09:24:38;;;;;;;;;;;;;;;;;;5075359;28;20488;-53
2022/04/29 09:27:05;;;;;;;;;;;;;;;;;;5075209;28;20287;-51
2022/04/29 09:29:32;;;;;;;;;;;;;;;;;;5075010;28;20050;-53
2022/04/29 09:31:58;;;;;;;;;;;;;;;;;;5075244;28;19908;-45
2022/04/29 09:34:25;;;;;;;;;;;;;;;;;;5074749;28;19966;-45
2022/04/29 09:36:51;;;;;;;;;;;;;;;;;;5075313;28;19913;-42
2022/04/29 09:39:27;;;;;;;;;;;;;;;;;;5074910;28;19909;-52
2022/04/29 09:41:54;;;;;;;;;;;;;;;;;;5075484;28;19908;-54
2022/04/29 09:44:20;;;;;;;;;;;;;;;;;;5074812;28;19919;-48
2022/04/29 09:46:47;;;;;;;;;;;;;;;;;;5075062;28;19962;-51
2022/04/29 09:49:13;;;;;;;;;;;;;;;;;;5075106;28;19970;-47
2022/04/29 09:51:39;;;;;;;;;;;;;;;;;;5074750;28;19919;-53
2022/04/29 09:54:06;;;;;;;;;;;;;;;;;;5074693;28;19996;-52
2022/04/29 09:56:33;;;;;;;;;;;;;;;;;;5074885;28;19912;-50
2022/04/29 09:58:59;;;;;;;;;;;;;;;;;;5074991;28;20417;-53
2022/04/29 10:01:25;;;;;;;;;;;;;;;;;;5074892;28;20331;-55
2022/04/29 10:03:52;;;;;;;;;;;;;;;;;;5074378;28;19985;-49
2022/04/29 10:06:18;;;;;;;;;;;;;;;;;;5074017;28;19920;-47
2022/04/29 10:08:45;;;;;;;;;;;;;;;;;;5074461;28;19920;-52
2022/04/29 10:11:11;;;;;;;;;;;;;;;;;;5074843;28;19909;-55
2022/04/29 10:13:38;;;;;;;;;;;;;;;;;;5074701;28;19909;-49
2022/04/29 10:16:05;;;;;;;;;;;;;;;;;;5074355;28;19973;-55
2022/04/29 10:21:16;;;;;;;;;;;;;;;;;;5069547;28;19935;-54
2022/04/29 10:23:48;;;;;;;;;;;;;;;;;;5054647;28;19999;-53
2022/04/29 10:26:15;;;;;;;;;;;;;;;;;;5054563;28;19909;-49
2022/04/29 10:28:41;;;;;;;;;;;;;;;;;;5053731;28;19928;-58
2022/04/29 10:31:09;;;;;;;;;;;;;;;;;;5054029;28;19909;-48
2022/04/29 10:33:36;;;;;;;;;;;;;;;;;;5054394;28;19917;-54
2022/04/29 10:36:03;;;;;;;;;;;;;;;;;;5068542;28;19963;-53
2022/04/29 10:38:31;;;;;;;;;;;;;;;;;;5074312;28;19992;-54
2022/04/29 10:40:57;;;;;;;;;;;;;;;;;;5074297;28;19920;-55
2022/04/29 10:43:23;;;;;;;;;;;;;;;;;;5074261;28;19908;-55
2022/04/29 10:45:50;;;;;;;;;;;;;;;;;;5074138;28;19908;-53
2022/04/29 10:48:16;;;;;;;;;;;;;;;;;;5073734;28;19940;-55
2022/04/29 10:50:43;;;;;;;;;;;;;;;;;;5074175;28;19940;-54
2022/04/29 10:53:09;;;;;;;;;;;;;;;;;;5074088;28;19908;-52
2022/04/29 10:55:36;;;;;;;;;;;;;;;;;;5074087;28;19912;-48
2022/04/29 10:58:02;;;;;;;;;;;;;;;;;;5073612;28;19908;-51
2022/04/29 11:00:30;;;;;;;;;;;;;;;;;;5073789;28;19954;-54
2022/04/29 11:02:56;;;;;;;;;;;;;;;;;;5074168;28;19912;-50
2022/04/29 11:05:23;;;;;;;;;;;;;;;;;;5073086;28;19956;-53
2022/04/29 11:07:52;;;;;;;;;;;;;;;;;;5073672;28;19920;-44
2022/04/29 11:10:18;;;;;;;;;;;;;;;;;;5054986;28;19967;-50
2022/04/29 11:12:45;;;;;;;;;;;;;;;;;;5053771;28;20324;-51
2022/04/29 11:15:11;;;;;;;;;;;;;;;;;;5053920;28;19915;-50
2022/04/29 11:17:38;;;;;;;;;;;;;;;;;;5053638;28;19913;-55
2022/04/29 11:20:04;;;;;;;;;;;;;;;;;;5062090;28;19991;-54
2022/04/29 11:25:15;;;;;;;;;;;;;;;;;;5073444;28;19919;-51
2022/04/29 11:27:42;;;;;;;;;;;;;;;;;;5073493;28;19939;-55
2022/04/29 11:30:09;;;;;;;;;;;;;;;;;;5073196;28;19909;-49
2022/04/29 11:32:36;;;;;;;;;;;;;;;;;;5073518;28;20302;-49
2022/04/29 11:35:05;;;;;;;;;;;;;;;;;;5073221;28;20270;-50
2022/04/29 11:37:35;;;;;;;;;;;;;;;;;;5073500;28;19909;-48
2022/04/29 11:40:01;;;;;;;;;;;;;;;;;;5073287;28;19916;-52
2022/04/29 11:42:28;;;;;;;;;;;;;;;;;;5071443;28;19908;-50
2022/04/29 11:44:55;;;;;;;;;;;;;;;;;;5073019;28;19915;-56
2022/04/29 11:47:22;;;;;;;;;;;;;;;;;;5073027;28;20005;-48
2022/04/29 11:49:48;;;;;;;;;;;;;;;;;;5072962;28;19908;-53
2022/04/29 11:52:14;;;;;;;;;;;;;;;;;;5072621;28;19915;-51
2022/04/29 11:54:41;;;;;;;;;;;;;;;;;;5068294;28;19909;-54
2022/04/29 11:57:07;;;;;;;;;;;;;;;;;;5053205;28;19909;-51
2022/04/29 11:59:34;;;;;;;;;;;;;;;;;;5053023;28;19905;-51
2022/04/29 12:02:00;;;;;;;;;;;;;;;;;;5053333;28;20352;-53
2022/04/29 12:04:27;;;;;;;;;;;;;;;;;;5072946;28;20507;-57
2022/04/29 12:06:53;;;;;;;;;;;;;;;;;;5072847;28;20281;-55
2022/04/29 12:09:23;;;;;;;;;;;;;;;;;;5071912;28;20231;-51
2022/04/29 12:11:50;;;;;;;;;;;;;;;;;;5072336;28;19916;-57
2022/04/29 12:14:16;;;;;;;;;;;;;;;;;;5071022;28;19909;-52
2022/04/29 12:16:43;;;;;;;;;;;;;;;;;;5072804;28;20003;-56
2022/04/29 12:19:09;;;;;;;;;;;;;;;;;;5072643;28;20351;-53
2022/04/29 12:21:36;;;;;;;;;;;;;;;;;;5071878;28;19986;-52
2022/04/29 12:24:02;;;;;;;;;;;;;;;;;;5072696;28;19962;-57
2022/04/29 12:26:29;;;;;;;;;;;;;;;;;;5072517;28;19908;-56
2022/04/29 12:28:55;;;;;;;;;;;;;;;;;;5073055;28;19921;-47
2022/04/29 12:36:51;;;;;;;;;;;;;;;;;;5052483;28;20016;-56
2022/04/29 12:39:24;;;;;;;;;;;;;;;;;;5052643;28;20311;-53
2022/04/29 12:41:50;;;;;;;;;;;;;;;;;;5053140;28;19948;-52
2022/04/29 12:47:01;;;;;;;;;;;;;;;;;;5053266;28;19951;-52
2022/04/29 12:49:28;;;;;;;;;;;;;;;;;;5052690;28;19923;-51
2022/04/29 12:51:54;;;;;;;;;;;;;;;;;;5054083;28;20363;-46
2022/04/29 12:54:21;;;;;;;;;;;;;;;;;;5056420;28;19994;-51
2022/04/29 12:56:47;;;;;;;;;;;;;;;;;;5056672;28;19962;-53
2022/04/29 12:59:15;;;;;;;;;;;;;;;;;;5075729;28;19915;-52
2022/04/29 13:01:41;;;;;;;;;;;;;;;;;;5076512;28;19908;-52
2022/04/29 13:04:07;;;;;;;;;;;;;;;;;;5069882;28;19952;-43
2022/04/29 13:06:34;;;;;;;;;;;;;;;;;;5056383;28;19920;-55
2022/04/29 13:09:00;;;;;;;;;;;;;;;;;;5055920;28;20352;-51
2022/04/29 13:11:27;;;;;;;;;;;;;;;;;;5056415;28;20354;-54
2022/04/29 13:13:54;;;;;;;;;;;;;;;;;;5056178;28;19915;-47
2022/04/29 13:16:20;;;;;;;;;;;;;;;;;;5056159;28;19948;-46
2022/04/29 13:18:47;;;;;;;;;;;;;;;;;;5056095;28;20350;-54
2022/04/29 13:21:13;;;;;;;;;;;;;;;;;;5056158;28;19936;-58
2022/04/29 13:23:40;;;;;;;;;;;;;;;;;;5056281;28;20007;-57
2022/04/29 13:26:06;;;;;;;;;;;;;;;;;;5073569;28;20389;-55
2022/04/29 13:28:32;;;;;;;;;;;;;;;;;;5076126;28;20281;-50
2022/04/29 13:30:59;;;;;;;;;;;;;;;;;;5076021;28;20008;-48
2022/04/29 13:33:25;;;;;;;;;;;;;;;;;;5075748;28;19913;-44
2022/04/29 13:35:52;;;;;;;;;;;;;;;;;;5076028;28;20333;-56
2022/04/29 13:38:18;;;;;;;;;;;;;;;;;;5075551;28;19919;-48
2022/04/29 13:40:45;;;;;;;;;;;;;;;;;;5075755;28;19924;-49
2022/04/29 13:43:12;;;;;;;;;;;;;;;;;;5075942;28;19998;-54
2022/04/29 13:45:39;;;;;;;;;;;;;;;;;;5075826;28;19916;-52
2022/04/29 13:48:07;;;;;;;;;;;;;;;;;;5075467;28;19921;-47
2022/04/29 13:50:33;;;;;;;;;;;;;;;;;;5075815;28;20016;-49
2022/04/29 13:53:09;;;;;;;;;;;;;;;;;;5075464;28;19909;-53
2022/04/29 13:55:35;;;;;;;;;;;;;;;;;;5075490;28;19912;-50
2022/04/29 13:58:02;;;;;;;;;;;;;;;;;;5073712;28;19995;-56
2022/04/29 14:00:28;;;;;;;;;;;;;;;;;;5075107;28;19919;-55
2022/04/29 14:02:54;;;;;;;;;;;;;;;;;;5074622;28;19913;-52
2022/04/29 14:05:24;;;;;;;;;;;;;;;;;;5074353;28;19912;-48
2022/04/29 14:07:50;;;;;;;;;;;;;;;;;;5075159;28;19923;-50
2022/04/29 14:10:17;;;;;;;;;;;;;;;;;;5074422;28;19909;-48
2022/04/29 14:12:43;;;;;;;;;;;;;;;;;;5074792;28;19909;-55
2022/04/29 14:15:10;;;;;;;;;;;;;;;;;;5075050;28;19908;-53
2022/04/29 14:17:36;;;;;;;;;;;;;;;;;;5074765;28;19991;-50
2022/04/29 14:20:03;;;;;;;;;;;;;;;;;;5074885;28;20298;-41
2022/04/29 14:22:29;;;;;;;;;;;;;;;;;;5074876;28;19908;-52
2022/04/29 14:24:56;;;;;;;;;;;;;;;;;;5074767;28;19948;-43
2022/04/29 14:27:24;;;;;;;;;;;;;;;;;;5075126;28;19909;-48
2022/04/29 14:29:50;;;;;;;;;;;;;;;;;;5074630;28;19981;-49
2022/04/29 14:32:17;;;;;;;;;;;;;;;;;;5074732;28;19915;-50
2022/04/29 14:34:44;;;;;;;;;;;;;;;;;;5075097;28;19909;-50
2022/04/29 14:37:14;;;;;;;;;;;;;;;;;;5074682;28;20274;-51
2022/04/29 14:39:40;;;;;;;;;;;;;;;;;;5075062;28;19909;-52
2022/04/29 14:42:07;;;;;;;;;;;;;;;;;;5074738;28;20270;-50
2022/04/29 14:44:34;;;;;;;;;;;;;;;;;;5074992;28;19909;-47
2022/04/29 14:47:00;;;;;;;;;;;;;;;;;;5074898;28;19904;-48
2022/04/29 14:49:27;;;;;;;;;;;;;;;;;;5074787;28;19982;-51
2022/04/29 14:51:53;;;;;;;;;;;;;;;;;;5074819;28;19909;-53
2022/04/29 14:54:20;;;;;;;;;;;;;;;;;;5074237;28;19909;-56
2022/04/29 14:56:46;;;;;;;;;;;;;;;;;;5075018;28;19961;-55
2022/04/29 14:59:13;;;;;;;;;;;;;;;;;;5074688;28;19908;-57
2022/04/29 15:04:24;;;;;;;;;;;;;;;;;;5074385;28;20022;-49
2022/04/29 15:06:50;;;;;;;;;;;;;;;;;;5074313;28;19920;-54
2022/04/29 15:17:31;;;;;;;;;;;;;;;;;;5074162;28;19938;-56
2022/04/29 15:19:58;;;;;;;;;;;;;;;;;;5074408;28;19908;-55
2022/04/29 15:22:27;;;;;;;;;;;;;;;;;;5073786;28;19960;-52
2022/04/29 15:24:53;;;;;;;;;;;;;;;;;;5074090;28;19908;-54
2022/04/29 15:27:20;;;;;;;;;;;;;;;;;;5073896;28;19916;-55
2022/04/29 15:29:47;;;;;;;;;;;;;;;;;;5074120;28;20263;-49
2022/04/29 15:32:13;;;;;;;;;;;;;;;;;;5072404;28;20343;-53
2022/04/29 15:34:40;;;;;;;;;;;;;;;;;;5073911;28;20314;-53
2022/04/29 15:37:06;;;;;;;;;;;;;;;;;;5074060;28;19951;-51
2022/04/29 15:39:33;;;;;;;;;;;;;;;;;;5055726;28;19916;-53
2022/04/29 15:41:59;;;;;;;;;;;;;;;;;;5054283;28;20272;-51
2022/04/29 15:44:26;;;;;;;;;;;;;;;;;;5054088;28;19913;-44
2022/04/29 15:46:52;;;;;;;;;;;;;;;;;;5054262;28;19909;-48
2022/04/29 15:49:19;;;;;;;;;;;;;;;;;;5054383;28;19971;-44
2022/04/29 15:51:45;;;;;;;;;;;;;;;;;;5054362;28;20003;-54
2022/04/29 15:54:12;;;;;;;;;;;;;;;;;;5054062;28;19915;-51
2022/04/29 15:56:38;;;;;;;;;;;;;;;;;;5053836;28;19909;-48
2022/04/29 15:59:05;;;;;;;;;;;;;;;;;;5053511;28;19915;-51
2022/04/29 16:01:32;;;;;;;;;;;;;;;;;;5053520;28;19908;-48
2022/04/29 16:03:58;;;;;;;;;;;;;;;;;;5053561;28;19951;-55
2022/04/29 16:06:25;;;;;;;;;;;;;;;;;;5052928;28;19947;-53
2022/04/29 16:08:51;;;;;;;;;;;;;;;;;;5053270;28;19916;-53
2022/04/29 16:11:18;;;;;;;;;;;;;;;;;;5053451;28;19909;-54
2022/04/29 16:13:45;;;;;;;;;;;;;;;;;;5053435;28;19905;-48
2022/04/29 16:16:11;;;;;;;;;;;;;;;;;;5053441;28;20280;-49
2022/04/29 16:21:22;;;;;;;;;;;;;;;;;;5053246;28;20375;-52
2022/04/29 16:26:33;;;;;;;;;;;;;;;;;;5072562;28;19958;-52
2022/04/29 16:29:02;;;;;;;;;;;;;;;;;;5073070;28;20413;-50
2022/04/29 16:31:29;;;;;;;;;;;;;;;;;;5073162;28;19909;-49
2022/04/29 16:33:57;;;;;;;;;;;;;;;;;;5073038;28;19913;-54
2022/04/29 16:36:24;;;;;;;;;;;;;;;;;;5072334;28;19909;-57
2022/04/29 16:38:51;;;;;;;;;;;;;;;;;;5072988;28;19909;-57
2022/04/29 16:41:17;;;;;;;;;;;;;;;;;;5072863;28;19915;-54
2022/04/29 16:43:44;;;;;;;;;;;;;;;;;;5072636;28;20011;-56
2022/04/29 16:46:11;;;;;;;;;;;;;;;;;;5072881;28;19916;-51
2022/04/29 16:48:37;;;;;;;;;;;;;;;;;;5072962;28;20015;-53
2022/04/29 16:51:04;;;;;;;;;;;;;;;;;;5072591;28;19909;-56
2022/04/29 16:53:30;;;;;;;;;;;;;;;;;;5072839;28;19938;-55
2022/04/29 16:55:56;;;;;;;;;;;;;;;;;;5073026;28;19915;-51
2022/04/29 17:01:07;;;;;;;;;;;;;;;;;;5072616;28;19916;-55
2022/04/29 17:03:34;;;;;;;;;;;;;;;;;;5072571;28;19950;-52
2022/04/29 17:06:00;;;;;;;;;;;;;;;;;;5072610;28;19920;-54
2022/04/29 17:08:27;;;;;;;;;;;;;;;;;;5072459;28;19927;-57
2022/04/29 17:10:53;;;;;;;;;;;;;;;;;;5072935;28;20007;-52
2022/04/29 17:13:20;;;;;;;;;;;;;;;;;;5072380;28;20322;-55
2022/04/29 17:15:46;;;;;;;;;;;;;;;;;;5072916;28;20317;-51
2022/04/29 17:18:13;;;;;;;;;;;;;;;;;;5072193;28;20335;-52
2022/04/29 17:20:39;;;;;;;;;;;;;;;;;;5072700;28;20398;-54
2022/04/29 17:23:06;;;;;;;;;;;;;;;;;;5072450;28;20340;-52
2022/04/29 17:25:33;;;;;;;;;;;;;;;;;;5072738;28;19934;-49
2022/04/29 17:27:59;;;;;;;;;;;;;;;;;;5072771;28;19967;-50
2022/04/29 17:30:25;;;;;;;;;;;;;;;;;;5072469;28;19965;-49